sensor_id;sensor_type;location;lat;lon;timestamp;pressure;altitude;pressure_sealevel;temperature;humidity
12215;BME280;6170;42.206;24.142;2023-04-06T00:00:54;98665.19;;;3.44;70.80
12215;BME280;6170;42.206;24.142;2023-04-06T00:03:21;98664.28;;;3.85;70.15
12215;BME280;6170;42.206;24.142;2023-04-06T00:05:48;98668.06;;;3.67;69.81
12215;BME280;6170;42.206;24.142;2023-04-06T00:08:17;98661.75;;;3.59;70.51
12215;BME280;6170;42.206;24.142;2023-04-06T00:10:46;98659.41;;;3.48;70.94
12215;BME280;6170;42.206;24.142;2023-04-06T00:13:13;98645.34;;;3.64;70.99
12215;BME280;6170;42.206;24.142;2023-04-06T00:15:41;98638.94;;;3.91;70.88
12215;BME280;6170;42.206;24.142;2023-04-06T00:18:08;98639.88;;;3.49;70.51
12215;BME280;6170;42.206;24.142;2023-04-06T00:20:35;98631.41;;;3.46;70.89
12215;BME280;6170;42.206;24.142;2023-04-06T00:23:02;98628.91;;;3.36;70.75
12215;BME280;6170;42.206;24.142;2023-04-06T00:25:30;98628.44;;;3.49;71.02
12215;BME280;6170;42.206;24.142;2023-04-06T00:27:57;98665.22;;;3.60;71.05
12215;BME280;6170;42.206;24.142;2023-04-06T00:30:24;98622.09;;;3.34;71.26
12215;BME280;6170;42.206;24.142;2023-04-06T00:32:52;98621.47;;;3.06;72.10
12215;BME280;6170;42.206;24.142;2023-04-06T00:35:19;98619.78;;;3.31;71.52
12215;BME280;6170;42.206;24.142;2023-04-06T00:37:46;98627.44;;;3.50;71.38
12215;BME280;6170;42.206;24.142;2023-04-06T00:40:14;98628.59;;;3.47;71.74
12215;BME280;6170;42.206;24.142;2023-04-06T00:42:43;98626.69;;;3.24;70.74
12215;BME280;6170;42.206;24.142;2023-04-06T00:45:10;98622.44;;;2.97;71.91
12215;BME280;6170;42.206;24.142;2023-04-06T00:47:37;98657.22;;;3.36;71.67
12215;BME280;6170;42.206;24.142;2023-04-06T00:50:05;98620.63;;;3.31;71.10
12215;BME280;6170;42.206;24.142;2023-04-06T00:52:33;98626.69;;;3.24;70.63
12215;BME280;6170;42.206;24.142;2023-04-06T00:55:01;98651.47;;;3.56;70.96
12215;BME280;6170;42.206;24.142;2023-04-06T00:57:28;98647.59;;;3.35;70.69
12215;BME280;6170;42.206;24.142;2023-04-06T00:59:57;98610.19;;;3.38;70.66
12215;BME280;6170;42.206;24.142;2023-04-06T01:02:24;98608.00;;;3.25;70.45
12215;BME280;6170;42.206;24.142;2023-04-06T01:04:51;98599.22;;;3.25;70.18
12215;BME280;6170;42.206;24.142;2023-04-06T01:07:19;98610.97;;;3.14;70.23
12215;BME280;6170;42.206;24.142;2023-04-06T01:09:46;98602.38;;;3.28;69.88
12215;BME280;6170;42.206;24.142;2023-04-06T01:12:13;98604.91;;;3.46;70.04
12215;BME280;6170;42.206;24.142;2023-04-06T01:14:40;98604.53;;;3.25;70.27
12215;BME280;6170;42.206;24.142;2023-04-06T01:17:09;98604.56;;;3.41;70.41
12215;BME280;6170;42.206;24.142;2023-04-06T01:19:36;98602.34;;;3.20;70.47
12215;BME280;6170;42.206;24.142;2023-04-06T01:22:03;98596.72;;;3.23;70.34
12215;BME280;6170;42.206;24.142;2023-04-06T01:24:32;98590.97;;;3.28;70.58
12215;BME280;6170;42.206;24.142;2023-04-06T01:26:59;98593.56;;;3.11;71.03
12215;BME280;6170;42.206;24.142;2023-04-06T01:29:27;98587.88;;;2.98;71.78
12215;BME280;6170;42.206;24.142;2023-04-06T01:31:54;98585.03;;;2.58;71.42
12215;BME280;6170;42.206;24.142;2023-04-06T01:34:21;98586.97;;;2.48;71.93
12215;BME280;6170;42.206;24.142;2023-04-06T01:36:48;98581.59;;;2.40;71.98
12215;BME280;6170;42.206;24.142;2023-04-06T01:39:15;98581.78;;;2.64;72.18
12215;BME280;6170;42.206;24.142;2023-04-06T01:41:44;98585.75;;;2.68;71.69
12215;BME280;6170;42.206;24.142;2023-04-06T01:44:12;98617.47;;;2.94;70.90
12215;BME280;6170;42.206;24.142;2023-04-06T01:46:39;98617.06;;;2.81;71.78
12215;BME280;6170;42.206;24.142;2023-04-06T01:49:06;98581.09;;;2.62;72.36
12215;BME280;6170;42.206;24.142;2023-04-06T01:51:33;98569.00;;;2.59;71.47
12215;BME280;6170;42.206;24.142;2023-04-06T01:54:00;98569.56;;;2.71;72.03
12215;BME280;6170;42.206;24.142;2023-04-06T01:56:27;98572.69;;;2.66;71.90
12215;BME280;6170;42.206;24.142;2023-04-06T01:58:56;98595.31;;;2.61;71.19
12215;BME280;6170;42.206;24.142;2023-04-06T02:01:24;98576.19;;;2.41;72.14
12215;BME280;6170;42.206;24.142;2023-04-06T02:03:51;98576.00;;;2.68;71.64
12215;BME280;6170;42.206;24.142;2023-04-06T02:06:19;98580.78;;;2.39;72.17
12215;BME280;6170;42.206;24.142;2023-04-06T02:08:46;98574.56;;;2.22;72.89
12215;BME280;6170;42.206;24.142;2023-04-06T02:11:13;98575.25;;;2.24;72.93
12215;BME280;6170;42.206;24.142;2023-04-06T02:13:40;98570.44;;;2.20;72.75
12215;BME280;6170;42.206;24.142;2023-04-06T02:16:08;98571.25;;;2.20;72.71
12215;BME280;6170;42.206;24.142;2023-04-06T02:18:35;98577.53;;;2.19;73.15
12215;BME280;6170;42.206;24.142;2023-04-06T02:21:02;98572.56;;;2.16;72.81
12215;BME280;6170;42.206;24.142;2023-04-06T02:23:30;98571.03;;;2.14;72.55
12215;BME280;6170;42.206;24.142;2023-04-06T02:25:57;98558.31;;;1.92;73.28
12215;BME280;6170;42.206;24.142;2023-04-06T02:28:24;98566.16;;;2.01;73.00
12215;BME280;6170;42.206;24.142;2023-04-06T02:30:51;98562.34;;;2.04;73.07
12215;BME280;6170;42.206;24.142;2023-04-06T02:33:19;98566.91;;;2.11;72.79
12215;BME280;6170;42.206;24.142;2023-04-06T02:35:46;98568.34;;;2.06;72.48
12215;BME280;6170;42.206;24.142;2023-04-06T02:38:13;98564.34;;;2.02;73.35
12215;BME280;6170;42.206;24.142;2023-04-06T02:40:40;98565.56;;;2.07;72.97
12215;BME280;6170;42.206;24.142;2023-04-06T02:43:07;98566.47;;;2.24;73.17
12215;BME280;6170;42.206;24.142;2023-04-06T02:45:35;98567.00;;;2.28;72.44
12215;BME280;6170;42.206;24.142;2023-04-06T02:48:02;98558.97;;;2.37;71.80
12215;BME280;6170;42.206;24.142;2023-04-06T02:50:30;98577.56;;;2.28;72.48
12215;BME280;6170;42.206;24.142;2023-04-06T02:52:57;98569.63;;;2.53;71.58
12215;BME280;6170;42.206;24.142;2023-04-06T02:55:24;98573.81;;;2.30;72.01
12215;BME280;6170;42.206;24.142;2023-04-06T02:57:51;98596.94;;;2.62;71.86
12215;BME280;6170;42.206;24.142;2023-04-06T03:00:19;98576.34;;;2.65;72.01
12215;BME280;6170;42.206;24.142;2023-04-06T03:02:46;98565.75;;;2.65;71.24
12215;BME280;6170;42.206;24.142;2023-04-06T03:05:13;98566.75;;;2.72;70.77
12215;BME280;6170;42.206;24.142;2023-04-06T03:07:42;98559.94;;;2.36;71.98
12215;BME280;6170;42.206;24.142;2023-04-06T03:10:10;98602.53;;;2.85;71.68
12215;BME280;6170;42.206;24.142;2023-04-06T03:12:38;98567.91;;;2.70;71.91
12215;BME280;6170;42.206;24.142;2023-04-06T03:15:08;98566.94;;;2.79;71.20
12215;BME280;6170;42.206;24.142;2023-04-06T03:17:36;98571.75;;;2.84;71.71
12215;BME280;6170;42.206;24.142;2023-04-06T03:20:03;98573.25;;;2.52;72.63
12215;BME280;6170;42.206;24.142;2023-04-06T03:22:31;98570.09;;;2.49;72.72
12215;BME280;6170;42.206;24.142;2023-04-06T03:25:00;98571.94;;;2.82;71.84
12215;BME280;6170;42.206;24.142;2023-04-06T03:27:27;98572.50;;;2.60;72.05
12215;BME280;6170;42.206;24.142;2023-04-06T03:29:54;98560.88;;;2.01;73.51
12215;BME280;6170;42.206;24.142;2023-04-06T03:32:21;98581.16;;;2.44;73.11
12215;BME280;6170;42.206;24.142;2023-04-06T03:34:49;98566.41;;;2.67;73.06
12215;BME280;6170;42.206;24.142;2023-04-06T03:37:16;98566.69;;;2.56;72.77
12215;BME280;6170;42.206;24.142;2023-04-06T03:39:43;98564.31;;;2.45;73.39
12215;BME280;6170;42.206;24.142;2023-04-06T03:42:12;98561.94;;;2.68;73.01
12215;BME280;6170;42.206;24.142;2023-04-06T03:44:39;98579.97;;;2.39;72.73
12215;BME280;6170;42.206;24.142;2023-04-06T03:47:06;98571.34;;;2.11;73.58
12215;BME280;6170;42.206;24.142;2023-04-06T03:49:34;98613.34;;;2.40;73.61
12215;BME280;6170;42.206;24.142;2023-04-06T03:52:01;98574.13;;;2.09;73.64
12215;BME280;6170;42.206;24.142;2023-04-06T03:54:28;98607.16;;;2.31;74.03
12215;BME280;6170;42.206;24.142;2023-04-06T03:56:56;98582.59;;;1.95;73.66
12215;BME280;6170;42.206;24.142;2023-04-06T03:59:25;98611.94;;;2.28;73.27
12215;BME280;6170;42.206;24.142;2023-04-06T04:01:52;98616.31;;;2.37;73.50
12215;BME280;6170;42.206;24.142;2023-04-06T04:04:19;98580.06;;;2.29;73.09
12215;BME280;6170;42.206;24.142;2023-04-06T04:06:46;98615.38;;;2.46;73.31
12215;BME280;6170;42.206;24.142;2023-04-06T04:09:14;98588.97;;;2.28;73.50
12215;BME280;6170;42.206;24.142;2023-04-06T04:11:41;98591.09;;;2.50;72.67
12215;BME280;6170;42.206;24.142;2023-04-06T04:14:08;98597.38;;;2.23;73.12
12215;BME280;6170;42.206;24.142;2023-04-06T04:16:37;98589.63;;;2.48;72.96
12215;BME280;6170;42.206;24.142;2023-04-06T04:19:05;98586.19;;;2.55;72.33
12215;BME280;6170;42.206;24.142;2023-04-06T04:21:32;98572.91;;;2.47;71.89
12215;BME280;6170;42.206;24.142;2023-04-06T04:23:59;98589.53;;;2.40;72.05
12215;BME280;6170;42.206;24.142;2023-04-06T04:26:26;98593.53;;;2.44;72.13
12215;BME280;6170;42.206;24.142;2023-04-06T04:28:53;98584.81;;;2.77;72.10
12215;BME280;6170;42.206;24.142;2023-04-06T04:31:21;98585.00;;;2.84;71.29
12215;BME280;6170;42.206;24.142;2023-04-06T04:33:50;98595.16;;;2.96;70.94
12215;BME280;6170;42.206;24.142;2023-04-06T04:36:17;98629.19;;;3.25;71.52
12215;BME280;6170;42.206;24.142;2023-04-06T04:38:44;98595.28;;;3.29;71.12
12215;BME280;6170;42.206;24.142;2023-04-06T04:41:11;98594.28;;;3.30;70.12
12215;BME280;6170;42.206;24.142;2023-04-06T04:43:39;98627.31;;;3.68;70.76
12215;BME280;6170;42.206;24.142;2023-04-06T04:46:06;98571.91;;;3.16;70.65
12215;BME280;6170;42.206;24.142;2023-04-06T04:48:33;98626.66;;;3.66;70.32
12215;BME280;6170;42.206;24.142;2023-04-06T04:51:03;98590.47;;;3.32;70.95
12215;BME280;6170;42.206;24.142;2023-04-06T04:53:30;98593.81;;;3.42;71.00
12215;BME280;6170;42.206;24.142;2023-04-06T04:55:58;98582.84;;;3.21;71.49
12215;BME280;6170;42.206;24.142;2023-04-06T04:58:25;98624.28;;;3.46;71.56
12215;BME280;6170;42.206;24.142;2023-04-06T05:00:52;98587.63;;;3.17;71.72
12215;BME280;6170;42.206;24.142;2023-04-06T05:03:22;98583.44;;;3.07;72.28
12215;BME280;6170;42.206;24.142;2023-04-06T05:05:49;98633.28;;;3.61;71.23
12215;BME280;6170;42.206;24.142;2023-04-06T05:08:18;98617.94;;;4.14;70.97
12215;BME280;6170;42.206;24.142;2023-04-06T05:10:46;98577.50;;;4.99;69.52
12215;BME280;6170;42.206;24.142;2023-04-06T05:13:13;98584.41;;;5.47;66.93
12215;BME280;6170;42.206;24.142;2023-04-06T05:15:41;98602.63;;;6.64;64.82
12215;BME280;6170;42.206;24.142;2023-04-06T05:18:09;98576.94;;;7.51;62.42
12215;BME280;6170;42.206;24.142;2023-04-06T05:20:37;98582.84;;;7.46;62.22
12215;BME280;6170;42.206;24.142;2023-04-06T05:23:04;98581.22;;;7.66;60.96
12215;BME280;6170;42.206;24.142;2023-04-06T05:25:33;98577.25;;;7.98;62.31
12215;BME280;6170;42.206;24.142;2023-04-06T05:28:00;98579.63;;;8.85;59.36
12215;BME280;6170;42.206;24.142;2023-04-06T05:30:28;98571.16;;;9.22;58.17
12215;BME280;6170;42.206;24.142;2023-04-06T05:32:55;98565.84;;;8.88;58.20
12215;BME280;6170;42.206;24.142;2023-04-06T05:35:23;98587.19;;;9.70;57.13
12215;BME280;6170;42.206;24.142;2023-04-06T05:37:50;98561.81;;;9.53;56.95
12215;BME280;6170;42.206;24.142;2023-04-06T05:40:17;98550.19;;;9.86;56.31
12215;BME280;6170;42.206;24.142;2023-04-06T05:42:46;98544.50;;;10.16;54.09
12215;BME280;6170;42.206;24.142;2023-04-06T05:45:15;98551.44;;;9.97;55.27
12215;BME280;6170;42.206;24.142;2023-04-06T05:47:44;98575.00;;;9.54;54.90
12215;BME280;6170;42.206;24.142;2023-04-06T05:50:12;98542.47;;;9.44;56.07
12215;BME280;6170;42.206;24.142;2023-04-06T05:52:39;98534.59;;;10.16;54.37
12215;BME280;6170;42.206;24.142;2023-04-06T05:55:09;98561.56;;;10.28;53.71
12215;BME280;6170;42.206;24.142;2023-04-06T05:57:36;98530.63;;;9.73;54.39
12215;BME280;6170;42.206;24.142;2023-04-06T06:00:06;98535.59;;;10.02;55.17
12215;BME280;6170;42.206;24.142;2023-04-06T06:02:34;98525.91;;;10.54;53.35
12215;BME280;6170;42.206;24.142;2023-04-06T06:05:02;98559.28;;;10.58;52.85
12215;BME280;6170;42.206;24.142;2023-04-06T06:07:29;98540.13;;;9.95;55.33
12215;BME280;6170;42.206;24.142;2023-04-06T06:09:57;98522.88;;;10.17;54.81
12215;BME280;6170;42.206;24.142;2023-04-06T06:12:24;98517.47;;;10.50;53.07
12215;BME280;6170;42.206;24.142;2023-04-06T06:14:51;98518.72;;;10.41;54.06
12215;BME280;6170;42.206;24.142;2023-04-06T06:17:20;98531.69;;;10.51;53.15
12215;BME280;6170;42.206;24.142;2023-04-06T06:19:48;98549.75;;;10.95;53.59
12215;BME280;6170;42.206;24.142;2023-04-06T06:22:15;98541.63;;;11.27;53.19
12215;BME280;6170;42.206;24.142;2023-04-06T06:24:42;98521.25;;;11.51;51.99
12215;BME280;6170;42.206;24.142;2023-04-06T06:27:10;98508.53;;;11.40;50.42
12215;BME280;6170;42.206;24.142;2023-04-06T06:29:37;98546.75;;;10.45;53.39
12215;BME280;6170;42.206;24.142;2023-04-06T06:32:05;98544.16;;;11.03;51.62
12215;BME280;6170;42.206;24.142;2023-04-06T06:34:36;98515.56;;;10.77;51.53
12215;BME280;6170;42.206;24.142;2023-04-06T06:37:03;98515.09;;;11.00;52.70
12215;BME280;6170;42.206;24.142;2023-04-06T06:39:30;98511.34;;;11.58;50.06
12215;BME280;6170;42.206;24.142;2023-04-06T06:41:57;98505.34;;;11.94;51.19
12215;BME280;6170;42.206;24.142;2023-04-06T06:44:26;98486.19;;;12.15;50.61
12215;BME280;6170;42.206;24.142;2023-04-06T06:46:54;98508.56;;;11.71;50.14
12215;BME280;6170;42.206;24.142;2023-04-06T06:49:21;98507.38;;;11.99;51.30
12215;BME280;6170;42.206;24.142;2023-04-06T06:51:50;98511.94;;;11.22;53.05
12215;BME280;6170;42.206;24.142;2023-04-06T06:54:17;98525.00;;;12.20;51.05
12215;BME280;6170;42.206;24.142;2023-04-06T06:56:44;98504.38;;;11.44;53.44
12215;BME280;6170;42.206;24.142;2023-04-06T06:59:11;98525.25;;;12.36;51.54
12215;BME280;6170;42.206;24.142;2023-04-06T07:01:39;98499.09;;;11.76;52.23
12215;BME280;6170;42.206;24.142;2023-04-06T07:04:06;98522.00;;;12.52;52.47
12215;BME280;6170;42.206;24.142;2023-04-06T07:06:34;98493.19;;;12.41;53.23
12215;BME280;6170;42.206;24.142;2023-04-06T07:09:03;98495.72;;;12.11;50.04
12215;BME280;6170;42.206;24.142;2023-04-06T07:11:30;98490.69;;;12.40;51.88
12215;BME280;6170;42.206;24.142;2023-04-06T07:13:58;98503.81;;;11.74;49.59
12215;BME280;6170;42.206;24.142;2023-04-06T07:16:25;98516.78;;;12.57;51.78
12215;BME280;6170;42.206;24.142;2023-04-06T07:18:52;98499.25;;;12.55;51.49
12215;BME280;6170;42.206;24.142;2023-04-06T07:21:19;98489.69;;;12.16;51.46
12215;BME280;6170;42.206;24.142;2023-04-06T07:23:47;98483.97;;;12.92;50.05
12215;BME280;6170;42.206;24.142;2023-04-06T07:26:17;98485.69;;;12.25;50.84
12215;BME280;6170;42.206;24.142;2023-04-06T07:28:45;98477.16;;;12.89;48.68
12215;BME280;6170;42.206;24.142;2023-04-06T07:31:12;98481.34;;;11.99;50.18
12215;BME280;6170;42.206;24.142;2023-04-06T07:33:39;98475.53;;;11.71;51.50
12215;BME280;6170;42.206;24.142;2023-04-06T07:36:07;98475.41;;;11.91;49.59
12215;BME280;6170;42.206;24.142;2023-04-06T07:38:34;98477.63;;;12.68;49.75
12215;BME280;6170;42.206;24.142;2023-04-06T07:41:01;98470.53;;;12.74;50.21
12215;BME280;6170;42.206;24.142;2023-04-06T07:43:31;98473.09;;;13.53;47.64
12215;BME280;6170;42.206;24.142;2023-04-06T07:45:58;98461.53;;;13.34;49.18
12215;BME280;6170;42.206;24.142;2023-04-06T07:48:26;98459.09;;;13.15;48.13
12215;BME280;6170;42.206;24.142;2023-04-06T07:51:00;98455.66;;;12.71;49.16
12215;BME280;6170;42.206;24.142;2023-04-06T07:53:28;98457.34;;;12.04;50.50
12215;BME280;6170;42.206;24.142;2023-04-06T07:55:56;98455.47;;;13.39;51.52
12215;BME280;6170;42.206;24.142;2023-04-06T07:58:23;98453.97;;;13.13;50.23
12215;BME280;6170;42.206;24.142;2023-04-06T08:00:52;98452.13;;;12.52;50.24
12215;BME280;6170;42.206;24.142;2023-04-06T08:03:20;98453.06;;;13.01;49.68
12215;BME280;6170;42.206;24.142;2023-04-06T08:05:51;98474.47;;;13.26;49.75
12215;BME280;6170;42.206;24.142;2023-04-06T08:08:19;98446.59;;;13.20;48.60
12215;BME280;6170;42.206;24.142;2023-04-06T08:10:47;98451.63;;;13.46;48.22
12215;BME280;6170;42.206;24.142;2023-04-06T08:13:14;98419.38;;;13.58;49.16
12215;BME280;6170;42.206;24.142;2023-04-06T08:15:41;98445.50;;;13.81;49.21
12215;BME280;6170;42.206;24.142;2023-04-06T08:18:10;98436.06;;;13.90;52.30
12215;BME280;6170;42.206;24.142;2023-04-06T08:20:37;98440.50;;;13.84;49.75
12215;BME280;6170;42.206;24.142;2023-04-06T08:23:05;98434.91;;;14.09;48.65
12215;BME280;6170;42.206;24.142;2023-04-06T08:25:35;98436.31;;;14.12;49.30
12215;BME280;6170;42.206;24.142;2023-04-06T08:28:03;98431.56;;;14.37;47.12
12215;BME280;6170;42.206;24.142;2023-04-06T08:30:30;98436.53;;;13.99;47.64
12215;BME280;6170;42.206;24.142;2023-04-06T08:32:57;98472.25;;;13.94;46.34
12215;BME280;6170;42.206;24.142;2023-04-06T08:35:26;98448.84;;;14.18;49.34
12215;BME280;6170;42.206;24.142;2023-04-06T08:37:54;98440.78;;;14.53;48.59
12215;BME280;6170;42.206;24.142;2023-04-06T08:40:21;98467.44;;;13.55;46.30
12215;BME280;6170;42.206;24.142;2023-04-06T08:42:50;98465.25;;;14.05;49.85
12215;BME280;6170;42.206;24.142;2023-04-06T08:45:19;98442.38;;;13.95;48.50
12215;BME280;6170;42.206;24.142;2023-04-06T08:47:47;98433.63;;;14.35;49.49
12215;BME280;6170;42.206;24.142;2023-04-06T08:50:16;98430.97;;;14.47;47.59
12215;BME280;6170;42.206;24.142;2023-04-06T08:52:47;98427.41;;;14.69;45.85
12215;BME280;6170;42.206;24.142;2023-04-06T08:55:15;98415.84;;;14.46;46.72
12215;BME280;6170;42.206;24.142;2023-04-06T08:57:42;98441.66;;;14.93;49.16
12215;BME280;6170;42.206;24.142;2023-04-06T09:00:12;98431.66;;;14.54;48.27
12215;BME280;6170;42.206;24.142;2023-04-06T09:02:43;98422.88;;;14.47;47.65
12215;BME280;6170;42.206;24.142;2023-04-06T09:05:10;98417.00;;;15.13;49.00
12215;BME280;6170;42.206;24.142;2023-04-06T09:07:38;98409.66;;;15.25;49.31
12215;BME280;6170;42.206;24.142;2023-04-06T09:10:08;98406.38;;;14.95;47.62
12215;BME280;6170;42.206;24.142;2023-04-06T09:12:35;98415.78;;;15.49;45.50
12215;BME280;6170;42.206;24.142;2023-04-06T09:15:03;98393.44;;;13.87;49.43
12215;BME280;6170;42.206;24.142;2023-04-06T09:17:32;98429.53;;;14.21;49.62
12215;BME280;6170;42.206;24.142;2023-04-06T09:20:00;98395.56;;;14.43;48.55
12215;BME280;6170;42.206;24.142;2023-04-06T09:22:35;98385.91;;;13.66;49.89
12215;BME280;6170;42.206;24.142;2023-04-06T09:25:04;98418.72;;;13.74;49.55
12215;BME280;6170;42.206;24.142;2023-04-06T09:27:34;98367.63;;;13.56;47.60
12215;BME280;6170;42.206;24.142;2023-04-06T09:30:06;98377.53;;;14.20;51.03
12215;BME280;6170;42.206;24.142;2023-04-06T09:32:45;98384.78;;;14.31;48.83
12215;BME280;6170;42.206;24.142;2023-04-06T09:35:13;98370.69;;;13.60;49.29
12215;BME280;6170;42.206;24.142;2023-04-06T09:37:40;98367.19;;;14.17;49.00
12215;BME280;6170;42.206;24.142;2023-04-06T09:40:08;98370.19;;;13.39;49.01
12215;BME280;6170;42.206;24.142;2023-04-06T09:42:36;98364.97;;;13.79;50.25
12215;BME280;6170;42.206;24.142;2023-04-06T09:45:04;98369.88;;;13.82;49.51
12215;BME280;6170;42.206;24.142;2023-04-06T09:47:32;98368.75;;;14.02;49.35
12215;BME280;6170;42.206;24.142;2023-04-06T09:50:00;98393.91;;;14.19;47.23
12215;BME280;6170;42.206;24.142;2023-04-06T09:52:31;98402.44;;;13.81;47.95
12215;BME280;6170;42.206;24.142;2023-04-06T09:55:02;98397.28;;;13.79;48.72
12215;BME280;6170;42.206;24.142;2023-04-06T09:57:32;98357.81;;;14.31;48.63
12215;BME280;6170;42.206;24.142;2023-04-06T10:00:07;98397.81;;;15.26;50.15
12215;BME280;6170;42.206;24.142;2023-04-06T10:02:45;98359.75;;;14.71;48.25
12215;BME280;6170;42.206;24.142;2023-04-06T10:05:20;98359.56;;;13.68;48.45
12215;BME280;6170;42.206;24.142;2023-04-06T10:07:51;98365.28;;;13.48;49.24
12215;BME280;6170;42.206;24.142;2023-04-06T10:10:20;98365.00;;;14.03;49.26
12215;BME280;6170;42.206;24.142;2023-04-06T10:12:48;98385.94;;;14.59;48.94
12215;BME280;6170;42.206;24.142;2023-04-06T10:15:18;98380.31;;;15.28;49.18
12215;BME280;6170;42.206;24.142;2023-04-06T10:17:45;98360.81;;;15.55;48.07
12215;BME280;6170;42.206;24.142;2023-04-06T10:20:17;98383.19;;;15.84;45.38
12215;BME280;6170;42.206;24.142;2023-04-06T10:22:53;98362.22;;;15.57;46.65
12215;BME280;6170;42.206;24.142;2023-04-06T10:25:28;98348.94;;;14.08;47.90
12215;BME280;6170;42.206;24.142;2023-04-06T10:27:59;98355.13;;;14.43;49.60
12215;BME280;6170;42.206;24.142;2023-04-06T10:30:28;98359.69;;;14.94;48.87
12215;BME280;6170;42.206;24.142;2023-04-06T10:32:55;98353.25;;;13.85;48.19
12215;BME280;6170;42.206;24.142;2023-04-06T10:35:23;98378.47;;;14.14;49.28
12215;BME280;6170;42.206;24.142;2023-04-06T10:37:52;98349.75;;;13.62;48.56
12215;BME280;6170;42.206;24.142;2023-04-06T10:40:22;98343.50;;;13.38;49.44
12215;BME280;6170;42.206;24.142;2023-04-06T10:42:50;98355.94;;;13.74;48.08
12215;BME280;6170;42.206;24.142;2023-04-06T10:45:22;98342.44;;;12.79;48.13
12215;BME280;6170;42.206;24.142;2023-04-06T10:47:52;98343.72;;;12.77;49.72
12215;BME280;6170;42.206;24.142;2023-04-06T10:50:19;98345.75;;;12.63;51.24
12215;BME280;6170;42.206;24.142;2023-04-06T10:52:58;98341.16;;;12.34;51.14
12215;BME280;6170;42.206;24.142;2023-04-06T10:55:26;98353.66;;;12.76;50.16
12215;BME280;6170;42.206;24.142;2023-04-06T10:57:54;98347.63;;;12.63;49.99
12215;BME280;6170;42.206;24.142;2023-04-06T11:00:21;98343.16;;;12.56;50.33
12215;BME280;6170;42.206;24.142;2023-04-06T11:02:48;98358.94;;;13.31;49.81
12215;BME280;6170;42.206;24.142;2023-04-06T11:05:16;98326.53;;;13.37;49.08
12215;BME280;6170;42.206;24.142;2023-04-06T11:07:44;98335.16;;;12.68;51.73
12215;BME280;6170;42.206;24.142;2023-04-06T11:10:11;98329.34;;;12.53;49.84
12215;BME280;6170;42.206;24.142;2023-04-06T11:12:38;98331.69;;;12.79;50.24
12215;BME280;6170;42.206;24.142;2023-04-06T11:15:06;98361.16;;;13.04;49.91
12215;BME280;6170;42.206;24.142;2023-04-06T11:17:35;98326.66;;;12.53;50.11
12215;BME280;6170;42.206;24.142;2023-04-06T11:20:04;98326.06;;;12.51;50.46
12215;BME280;6170;42.206;24.142;2023-04-06T11:22:32;98319.72;;;12.45;50.76
12215;BME280;6170;42.206;24.142;2023-04-06T11:25:09;98327.78;;;12.27;51.05
12215;BME280;6170;42.206;24.142;2023-04-06T11:27:37;98326.66;;;12.53;49.87
12215;BME280;6170;42.206;24.142;2023-04-06T11:30:06;98341.56;;;12.97;49.91
12215;BME280;6170;42.206;24.142;2023-04-06T11:32:39;98296.97;;;12.48;50.79
12215;BME280;6170;42.206;24.142;2023-04-06T11:35:11;98306.44;;;12.80;49.01
12215;BME280;6170;42.206;24.142;2023-04-06T11:37:39;98309.38;;;12.79;48.91
12215;BME280;6170;42.206;24.142;2023-04-06T11:40:10;98300.44;;;12.96;48.59
12215;BME280;6170;42.206;24.142;2023-04-06T11:42:37;98312.97;;;13.90;50.02
12215;BME280;6170;42.206;24.142;2023-04-06T11:45:07;98296.13;;;13.95;49.54
12215;BME280;6170;42.206;24.142;2023-04-06T11:47:35;98295.44;;;13.65;48.61
12215;BME280;6170;42.206;24.142;2023-04-06T11:50:06;98331.00;;;14.36;47.87
12215;BME280;6170;42.206;24.142;2023-04-06T11:52:33;98293.38;;;14.30;48.89
12215;BME280;6170;42.206;24.142;2023-04-06T11:55:11;98303.50;;;14.00;47.65
12215;BME280;6170;42.206;24.142;2023-04-06T11:57:38;98299.78;;;14.52;46.80
12215;BME280;6170;42.206;24.142;2023-04-06T12:00:07;98301.56;;;14.35;46.73
12215;BME280;6170;42.206;24.142;2023-04-06T12:02:35;98324.09;;;14.41;48.30
12215;BME280;6170;42.206;24.142;2023-04-06T12:05:02;98298.59;;;13.73;48.17
12215;BME280;6170;42.206;24.142;2023-04-06T12:07:30;98290.03;;;14.63;46.12
12215;BME280;6170;42.206;24.142;2023-04-06T12:09:57;98291.56;;;14.07;48.43
12215;BME280;6170;42.206;24.142;2023-04-06T12:12:26;98289.91;;;13.94;48.13
12215;BME280;6170;42.206;24.142;2023-04-06T12:14:53;98283.72;;;13.82;47.63
12215;BME280;6170;42.206;24.142;2023-04-06T12:17:20;98290.13;;;14.16;48.62
12215;BME280;6170;42.206;24.142;2023-04-06T12:19:47;98290.78;;;14.75;46.78
12215;BME280;6170;42.206;24.142;2023-04-06T12:22:15;98284.50;;;14.18;45.80
12215;BME280;6170;42.206;24.142;2023-04-06T12:24:42;98292.00;;;14.16;47.09
12215;BME280;6170;42.206;24.142;2023-04-06T12:27:09;98275.22;;;14.25;46.38
12215;BME280;6170;42.206;24.142;2023-04-06T12:29:38;98283.81;;;13.99;46.66
12215;BME280;6170;42.206;24.142;2023-04-06T12:32:05;98316.03;;;13.82;46.70
12215;BME280;6170;42.206;24.142;2023-04-06T12:34:33;98289.00;;;13.54;47.46
12215;BME280;6170;42.206;24.142;2023-04-06T12:37:00;98289.25;;;13.76;47.38
12215;BME280;6170;42.206;24.142;2023-04-06T12:39:28;98285.72;;;13.75;46.63
12215;BME280;6170;42.206;24.142;2023-04-06T12:41:55;98286.53;;;13.64;47.56
12215;BME280;6170;42.206;24.142;2023-04-06T12:44:23;98286.56;;;13.76;47.29
12215;BME280;6170;42.206;24.142;2023-04-06T12:46:51;98278.09;;;13.37;47.20
12215;BME280;6170;42.206;24.142;2023-04-06T12:49:19;98269.44;;;13.47;47.17
12215;BME280;6170;42.206;24.142;2023-04-06T12:51:47;98296.81;;;14.37;46.91
12215;BME280;6170;42.206;24.142;2023-04-06T12:54:15;98275.41;;;13.84;46.91
12215;BME280;6170;42.206;24.142;2023-04-06T12:56:42;98272.28;;;14.27;46.02
12215;BME280;6170;42.206;24.142;2023-04-06T12:59:09;98304.09;;;13.78;46.34
12215;BME280;6170;42.206;24.142;2023-04-06T13:01:37;98266.03;;;13.86;46.04
12215;BME280;6170;42.206;24.142;2023-04-06T13:04:05;98264.63;;;13.37;47.96
12215;BME280;6170;42.206;24.142;2023-04-06T13:06:32;98276.78;;;14.10;45.72
12215;BME280;6170;42.206;24.142;2023-04-06T13:09:00;98263.44;;;14.03;46.36